createdAt,value
2019-04-06T00:00:35.801Z,979.06
2019-04-06T00:01:35.800Z,979.08
2019-04-06T00:02:35.784Z,979.09
2019-04-06T00:03:35.796Z,979.09
2019-04-06T00:04:35.782Z,979.05
2019-04-06T00:05:35.751Z,979.08
2019-04-06T00:06:35.759Z,979.02
2019-04-06T00:07:35.728Z,979.04
2019-04-06T00:08:35.716Z,979.06
2019-04-06T00:09:35.705Z,979.03
2019-04-06T00:10:35.730Z,979.00
2019-04-06T00:11:35.697Z,979.04
2019-04-06T00:12:35.673Z,979.07
2019-04-06T00:13:35.672Z,979.05
2019-04-06T00:14:35.654Z,979.09
2019-04-06T00:15:35.647Z,979.14
2019-04-06T00:16:35.691Z,979.08
2019-04-06T00:17:35.629Z,979.09
2019-04-06T00:18:35.615Z,979.03
2019-04-06T00:19:35.602Z,979.06
2019-04-06T00:20:35.595Z,979.08
2019-04-06T00:21:35.591Z,979.05
2019-04-06T00:22:35.580Z,979.05
2019-04-06T00:23:35.611Z,979.06
2019-04-06T00:24:35.554Z,979.03
2019-04-06T00:25:43.812Z,979.07
2019-04-06T00:26:36.544Z,979.07
2019-04-06T00:27:35.523Z,979.14
2019-04-06T00:28:35.511Z,979.10
2019-04-06T00:29:35.524Z,979.12
2019-04-06T00:30:35.487Z,979.10
2019-04-06T00:31:35.488Z,979.13
2019-04-06T00:32:35.492Z,979.15
2019-04-06T00:33:35.456Z,979.06
2019-04-06T00:34:35.448Z,979.13
2019-04-06T00:35:35.459Z,979.12
2019-04-06T00:36:35.434Z,979.14
2019-04-06T00:37:35.414Z,979.20
2019-04-06T00:38:35.404Z,979.14
2019-04-06T00:39:35.415Z,979.14
2019-04-06T00:40:35.464Z,979.06
2019-04-06T00:41:35.417Z,979.05
2019-04-06T00:42:35.361Z,979.07
2019-04-06T00:43:35.350Z,978.99
2019-04-06T00:44:35.398Z,979.07
2019-04-06T00:45:35.331Z,979.06
2019-04-06T00:46:35.383Z,979.14
2019-04-06T00:47:35.319Z,978.99
2019-04-06T00:48:35.299Z,979.12
2019-04-06T00:49:35.299Z,979.03
2019-04-06T00:50:35.280Z,979.05
2019-04-06T00:51:35.326Z,979.09
2019-04-06T00:52:35.258Z,979.07
2019-04-06T00:53:35.248Z,979.03
2019-04-06T00:54:35.273Z,979.05
2019-04-06T00:55:35.228Z,979.12
2019-04-06T00:56:35.231Z,979.07
2019-04-06T00:57:35.226Z,979.09
2019-04-06T00:58:35.196Z,979.07
2019-04-06T00:59:35.191Z,979.06
2019-04-06T01:00:35.176Z,979.04
2019-04-06T01:01:36.466Z,979.04
2019-04-06T01:02:35.153Z,979.07
2019-04-06T01:03:35.163Z,979.10
2019-04-06T01:04:35.146Z,979.11
2019-04-06T01:05:35.129Z,979.12
2019-04-06T01:06:35.118Z,979.07
2019-04-06T01:07:35.112Z,978.99
2019-04-06T01:08:35.098Z,979.00
2019-04-06T01:09:35.105Z,979.04
2019-04-06T01:10:35.098Z,978.97
2019-04-06T01:11:35.061Z,979.02
2019-04-06T01:12:35.062Z,979.03
2019-04-06T01:13:35.048Z,979.01
2019-04-06T01:14:35.030Z,979.01
2019-04-06T01:15:35.064Z,978.95
2019-04-06T01:16:35.009Z,978.91
2019-04-06T01:17:35.036Z,978.83
2019-04-06T01:18:34.987Z,978.92
2019-04-06T01:19:35.030Z,978.83
2019-04-06T01:20:34.966Z,978.84
2019-04-06T01:21:34.971Z,978.86
2019-04-06T01:22:35.040Z,978.84
2019-04-06T01:23:34.934Z,978.82
2019-04-06T01:24:34.924Z,978.83
2019-04-06T01:25:34.914Z,978.79
2019-04-06T01:26:34.917Z,978.81
2019-04-06T01:27:34.948Z,978.80
2019-04-06T01:28:34.882Z,978.87
2019-04-06T01:29:34.871Z,978.82
2019-04-06T01:30:34.862Z,978.77
2019-04-06T01:31:34.852Z,978.81
2019-04-06T01:32:34.894Z,978.77
2019-04-06T01:33:34.855Z,978.79
2019-04-06T01:34:34.819Z,978.78
2019-04-06T01:35:34.808Z,978.86
2019-04-06T01:36:34.800Z,978.89
2019-04-06T01:37:34.799Z,978.77
2019-04-06T01:38:34.860Z,978.74
2019-04-06T01:39:34.788Z,978.78
2019-04-06T01:40:34.767Z,978.84
2019-04-06T01:41:34.747Z,978.83
2019-04-06T01:42:34.851Z,978.85
2019-04-06T01:43:34.724Z,978.75
2019-04-06T01:44:34.714Z,978.78
2019-04-06T01:45:34.739Z,978.78
2019-04-06T01:46:34.694Z,978.78
2019-04-06T01:47:34.788Z,978.77
2019-04-06T01:48:34.675Z,978.76
2019-04-06T01:49:34.662Z,978.71
2019-04-06T01:50:34.651Z,978.61
2019-04-06T01:51:34.681Z,978.71
2019-04-06T01:52:34.642Z,978.66
2019-04-06T01:53:34.620Z,978.69
2019-04-06T01:54:34.610Z,978.63
2019-04-06T01:55:34.599Z,978.60
2019-04-06T01:56:34.611Z,978.62
2019-04-06T01:57:34.629Z,978.55
2019-04-06T01:58:34.569Z,978.68
2019-04-06T01:59:34.556Z,978.60
2019-04-06T02:00:34.553Z,978.61
2019-04-06T02:01:34.538Z,978.55
2019-04-06T02:02:34.539Z,978.57
2019-04-06T02:03:34.663Z,978.58
2019-04-06T02:04:34.577Z,978.59
2019-04-06T02:05:34.568Z,978.61
2019-04-06T02:06:34.487Z,978.66
2019-04-06T02:07:34.488Z,978.64
2019-04-06T02:08:34.463Z,978.65
2019-04-06T02:09:34.486Z,978.73
2019-04-06T02:10:34.443Z,978.65
2019-04-06T02:11:34.442Z,978.67
2019-04-06T02:12:34.471Z,978.60
2019-04-06T02:13:34.411Z,978.67
2019-04-06T02:14:34.407Z,978.63
2019-04-06T02:15:34.392Z,978.61
2019-04-06T02:16:34.404Z,978.60
2019-04-06T02:17:34.369Z,978.60
2019-04-06T02:18:34.432Z,978.67
2019-04-06T02:19:34.348Z,978.70
2019-04-06T02:20:34.359Z,978.69
2019-04-06T02:21:34.353Z,978.70
2019-04-06T02:22:34.321Z,978.68
2019-04-06T02:23:34.455Z,978.68
2019-04-06T02:24:34.298Z,978.69
2019-04-06T02:25:34.286Z,978.60
2019-04-06T02:26:34.274Z,978.57
2019-04-06T02:27:34.306Z,978.67
2019-04-06T02:28:34.264Z,978.64
2019-04-06T02:29:34.242Z,978.64
2019-04-06T02:30:34.252Z,978.64
2019-04-06T02:31:34.225Z,978.65
2019-04-06T02:32:34.212Z,978.61
2019-04-06T02:33:34.235Z,978.63
2019-04-06T02:34:34.204Z,978.70
2019-04-06T02:35:34.253Z,978.65
2019-04-06T02:36:34.170Z,978.70
2019-04-06T02:37:34.281Z,978.65
2019-04-06T02:38:34.174Z,978.69
2019-04-06T02:39:34.159Z,978.66
2019-04-06T02:40:34.130Z,978.67
2019-04-06T02:41:34.118Z,978.68
2019-04-06T02:42:34.120Z,978.67
2019-04-06T02:43:34.136Z,978.65
2019-04-06T02:44:34.088Z,978.61
2019-04-06T02:45:34.096Z,978.73
2019-04-06T02:46:34.287Z,978.71
2019-04-06T02:47:34.063Z,978.73
2019-04-06T02:48:34.068Z,978.72
2019-04-06T02:49:34.036Z,978.70
2019-04-06T02:50:34.210Z,978.63
2019-04-06T02:51:34.019Z,978.70
2019-04-06T02:52:34.009Z,978.68
2019-04-06T02:53:34.005Z,978.67
2019-04-06T02:54:34.087Z,978.70
2019-04-06T02:55:33.970Z,978.67
2019-04-06T02:56:45.960Z,978.64
2019-04-06T02:57:34.965Z,978.68
2019-04-06T02:58:33.953Z,978.65
2019-04-06T02:59:33.934Z,978.68
2019-04-06T03:00:33.921Z,978.73
2019-04-06T03:01:33.915Z,978.67
2019-04-06T03:02:33.946Z,978.68
2019-04-06T03:03:33.924Z,978.77
2019-04-06T03:04:33.894Z,978.75
2019-04-06T03:05:34.016Z,978.71
2019-04-06T03:06:33.865Z,978.70
2019-04-06T03:07:33.846Z,978.77
2019-04-06T03:08:33.852Z,978.71
2019-04-06T03:09:33.852Z,978.75
2019-04-06T03:10:33.822Z,978.79
2019-04-06T03:11:33.806Z,978.77
2019-04-06T03:12:33.794Z,978.82
2019-04-06T03:13:33.789Z,978.80
2019-04-06T03:14:33.833Z,978.80
2019-04-06T03:15:33.803Z,978.79
2019-04-06T03:16:33.787Z,978.79
2019-04-06T03:17:33.766Z,978.76
2019-04-06T03:18:33.731Z,978.74
2019-04-06T03:19:33.744Z,978.80
2019-04-06T03:20:33.713Z,978.77
2019-04-06T03:21:33.742Z,978.80
2019-04-06T03:22:33.711Z,978.70
2019-04-06T03:23:33.713Z,978.68
2019-04-06T03:24:33.684Z,978.83
2019-04-06T03:25:33.675Z,978.73
2019-04-06T03:26:33.657Z,978.73
2019-04-06T03:27:33.650Z,978.74
2019-04-06T03:28:33.657Z,978.70
2019-04-06T03:29:33.649Z,978.76
2019-04-06T03:30:33.615Z,978.74
2019-04-06T03:31:33.669Z,978.69
2019-04-06T03:32:33.595Z,978.69
2019-04-06T03:33:33.577Z,978.71
2019-04-06T03:34:33.614Z,978.69
2019-04-06T03:35:33.556Z,978.72
2019-04-06T03:36:33.547Z,978.73
2019-04-06T03:37:33.539Z,978.71
2019-04-06T03:38:33.526Z,978.71
2019-04-06T03:39:33.632Z,978.75
2019-04-06T03:40:33.507Z,978.77
2019-04-06T03:41:33.518Z,978.78
2019-04-06T03:42:33.519Z,978.79
2019-04-06T03:43:33.473Z,978.76
2019-04-06T03:44:33.474Z,978.71
2019-04-06T03:45:33.634Z,978.66
2019-04-06T03:46:33.444Z,978.75
2019-04-06T03:47:33.458Z,978.65
2019-04-06T03:48:33.420Z,978.71
2019-04-06T03:49:33.440Z,978.70
2019-04-06T03:50:33.447Z,978.67
2019-04-06T03:51:33.388Z,978.73
2019-04-06T03:52:33.377Z,978.68
2019-04-06T03:53:33.429Z,978.68
2019-04-06T03:54:33.372Z,978.70
2019-04-06T03:55:33.508Z,978.67
2019-04-06T03:56:33.345Z,978.68
2019-04-06T03:57:33.329Z,978.70
2019-04-06T03:58:33.317Z,978.73
2019-04-06T03:59:33.342Z,978.70
2019-04-06T04:00:33.295Z,978.72
2019-04-06T04:01:33.288Z,978.73
2019-04-06T04:02:33.274Z,978.74
2019-04-06T04:03:33.261Z,978.71
2019-04-06T04:04:33.265Z,978.65
2019-04-06T04:05:33.268Z,978.65
2019-04-06T04:06:33.242Z,978.64
2019-04-06T04:07:33.241Z,978.61
2019-04-06T04:08:33.217Z,978.66
2019-04-06T04:09:33.217Z,978.58
2019-04-06T04:10:33.384Z,978.58
2019-04-06T04:11:33.194Z,978.55
2019-04-06T04:12:33.187Z,978.58
2019-04-06T04:13:33.168Z,978.62
2019-04-06T04:14:33.164Z,978.63
2019-04-06T04:15:33.219Z,978.61
2019-04-06T04:16:33.131Z,978.62
2019-04-06T04:17:33.190Z,978.65
2019-04-06T04:18:33.138Z,978.67
2019-04-06T04:19:33.247Z,978.69
2019-04-06T04:20:33.100Z,978.67
2019-04-06T04:21:33.078Z,978.65
2019-04-06T04:22:34.951Z,978.62
2019-04-06T04:23:33.178Z,978.65
2019-04-06T04:24:33.074Z,978.62
2019-04-06T04:25:33.051Z,978.69
2019-04-06T04:26:33.045Z,978.72
2019-04-06T04:27:33.137Z,978.65
2019-04-06T04:28:33.004Z,978.65
2019-04-06T04:29:32.993Z,978.60
2019-04-06T04:30:34.640Z,978.70
2019-04-06T04:31:32.974Z,978.59
2019-04-06T04:32:32.963Z,978.68
2019-04-06T04:33:32.955Z,978.66
2019-04-06T04:34:32.958Z,978.64
2019-04-06T04:35:32.943Z,978.69
2019-04-06T04:36:32.941Z,978.68
2019-04-06T04:37:33.129Z,978.65
2019-04-06T04:38:32.930Z,978.63
2019-04-06T04:39:32.889Z,978.67
2019-04-06T04:40:32.889Z,978.59
2019-04-06T04:41:32.897Z,978.64
2019-04-06T04:42:32.857Z,978.63
2019-04-06T04:43:32.870Z,978.67
2019-04-06T04:44:32.915Z,978.69
2019-04-06T04:45:32.840Z,978.71
2019-04-06T04:46:33.036Z,978.69
2019-04-06T04:47:32.804Z,978.70
2019-04-06T04:48:32.812Z,978.74
2019-04-06T04:49:32.841Z,978.71
2019-04-06T04:50:32.793Z,978.75
2019-04-06T04:51:32.766Z,978.75
2019-04-06T04:52:32.977Z,978.75
2019-04-06T04:53:32.888Z,978.73
2019-04-06T04:54:32.734Z,978.70
2019-04-06T04:55:32.774Z,978.72
2019-04-06T04:56:32.710Z,978.73
2019-04-06T04:57:40.010Z,978.75
2019-04-06T04:58:33.744Z,978.77
2019-04-06T04:59:32.696Z,978.77
2019-04-06T05:00:32.680Z,978.80
2019-04-06T05:01:32.661Z,978.79
2019-04-06T05:02:32.661Z,978.80
2019-04-06T05:03:32.642Z,978.81
2019-04-06T05:04:32.629Z,978.82
2019-04-06T05:05:32.649Z,978.78
2019-04-06T05:06:32.610Z,978.86
2019-04-06T05:07:32.628Z,978.88
2019-04-06T05:08:32.785Z,978.83
2019-04-06T05:09:32.577Z,978.80
2019-04-06T05:10:32.579Z,978.79
2019-04-06T05:11:32.559Z,978.82
2019-04-06T05:12:32.545Z,978.78
2019-04-06T05:13:32.548Z,978.77
2019-04-06T05:14:32.567Z,978.75
2019-04-06T05:15:32.543Z,978.75
2019-04-06T05:16:32.549Z,978.80
2019-04-06T05:17:32.650Z,978.80
2019-04-06T05:18:32.499Z,978.84
2019-04-06T05:19:32.477Z,978.82
2019-04-06T05:20:32.478Z,978.87
2019-04-06T05:21:32.473Z,978.81
2019-04-06T05:22:32.554Z,978.76
2019-04-06T05:23:32.434Z,978.79
2019-04-06T05:24:32.430Z,978.84
2019-04-06T05:25:32.441Z,978.86
2019-04-06T05:26:37.369Z,978.85
2019-04-06T05:27:33.435Z,978.79
2019-04-06T05:28:32.380Z,978.85
2019-04-06T05:29:33.333Z,978.83
2019-04-06T05:30:32.358Z,978.82
2019-04-06T05:31:32.359Z,978.83
2019-04-06T05:32:32.354Z,978.87
2019-04-06T05:33:32.363Z,978.77
2019-04-06T05:34:32.333Z,978.81
2019-04-06T05:35:32.310Z,978.80
2019-04-06T05:36:32.310Z,978.86
2019-04-06T05:37:32.327Z,978.82
2019-04-06T05:38:32.275Z,978.75
2019-04-06T05:39:32.294Z,978.74
2019-04-06T05:40:32.255Z,978.82
2019-04-06T05:41:32.253Z,978.82
2019-04-06T05:42:32.356Z,978.84
2019-04-06T05:43:32.231Z,978.86
2019-04-06T05:44:32.216Z,978.86
2019-04-06T05:45:32.223Z,978.90
2019-04-06T05:46:32.204Z,978.81
2019-04-06T05:47:32.419Z,978.85
2019-04-06T05:48:32.171Z,978.88
2019-04-06T05:49:32.170Z,978.85
2019-04-06T05:50:32.163Z,978.86
2019-04-06T05:51:32.194Z,978.91
2019-04-06T05:52:32.129Z,978.85
2019-04-06T05:53:32.228Z,978.86
2019-04-06T05:54:32.122Z,978.84
2019-04-06T05:55:32.118Z,978.85
2019-04-06T05:56:32.136Z,978.84
2019-04-06T05:57:32.811Z,978.92
2019-04-06T05:58:32.067Z,978.88
2019-04-06T05:59:32.078Z,978.87
2019-04-06T06:00:32.055Z,978.84
2019-04-06T06:01:32.050Z,978.88
2019-04-06T06:02:32.046Z,978.86
2019-04-06T06:03:32.164Z,978.88
2019-04-06T06:04:32.043Z,978.86
2019-04-06T06:05:32.000Z,978.90
2019-04-06T06:06:31.995Z,978.86
2019-04-06T06:07:31.980Z,978.78
2019-04-06T06:08:32.088Z,978.79
2019-04-06T06:09:32.009Z,978.76
2019-04-06T06:10:32.033Z,978.74
2019-04-06T06:11:31.958Z,978.73
2019-04-06T06:12:31.921Z,978.76
2019-04-06T06:13:31.913Z,978.79
2019-04-06T06:14:31.903Z,978.71
2019-04-06T06:15:31.928Z,978.78
2019-04-06T06:16:31.891Z,978.71
2019-04-06T06:17:32.031Z,978.68
2019-04-06T06:18:31.856Z,978.66
2019-04-06T06:19:31.849Z,978.68
2019-04-06T06:20:31.836Z,978.65
2019-04-06T06:21:32.029Z,978.70
2019-04-06T06:22:31.817Z,978.69
2019-04-06T06:23:31.829Z,978.70
2019-04-06T06:24:34.482Z,978.73
2019-04-06T06:25:31.826Z,978.72
2019-04-06T06:26:31.790Z,978.70
2019-04-06T06:27:31.767Z,978.73
2019-04-06T06:28:31.795Z,978.74
2019-04-06T06:29:31.742Z,978.74
2019-04-06T06:30:31.914Z,978.76
2019-04-06T06:31:31.761Z,978.71
2019-04-06T06:32:31.764Z,978.73
2019-04-06T06:33:31.718Z,978.74
2019-04-06T06:34:31.729Z,978.61
2019-04-06T06:35:31.681Z,978.55
2019-04-06T06:36:31.690Z,978.63
2019-04-06T06:37:31.707Z,978.55
2019-04-06T06:38:31.645Z,978.60
2019-04-06T06:39:31.637Z,978.60
2019-04-06T06:40:31.691Z,978.59
2019-04-06T06:41:31.636Z,978.57
2019-04-06T06:42:31.628Z,978.57
2019-04-06T06:43:31.617Z,978.49
2019-04-06T06:44:31.584Z,978.42
2019-04-06T06:45:31.573Z,978.41
2019-04-06T06:46:31.635Z,978.42
2019-04-06T06:47:31.566Z,978.37
2019-04-06T06:48:31.545Z,978.40
2019-04-06T06:49:31.608Z,978.43
2019-04-06T06:50:31.531Z,978.40
2019-04-06T06:51:31.666Z,978.40
2019-04-06T06:52:31.518Z,978.39
2019-04-06T06:53:31.596Z,978.38
2019-04-06T06:54:31.484Z,978.39
2019-04-06T06:55:31.464Z,978.44
2019-04-06T06:56:31.532Z,978.43
2019-04-06T06:57:31.458Z,978.42
2019-04-06T06:58:31.432Z,978.43
2019-04-06T06:59:31.429Z,978.41
2019-04-06T07:00:31.439Z,978.41
2019-04-06T07:01:31.435Z,978.42
2019-04-06T07:02:31.434Z,978.40
2019-04-06T07:03:31.400Z,978.39
2019-04-06T07:04:31.374Z,978.37
2019-04-06T07:05:31.365Z,978.35
2019-04-06T07:06:31.351Z,978.42
2019-04-06T07:07:31.350Z,978.38
2019-04-06T07:08:31.513Z,978.38
2019-04-06T07:09:31.366Z,978.37
2019-04-06T07:10:31.309Z,978.41
2019-04-06T07:11:31.327Z,978.38
2019-04-06T07:12:31.305Z,978.36
2019-04-06T07:13:31.274Z,978.39
2019-04-06T07:14:31.271Z,978.35
2019-04-06T07:15:31.280Z,978.32
2019-04-06T07:16:31.243Z,978.33
2019-04-06T07:17:31.243Z,978.34
2019-04-06T07:18:31.224Z,978.30
2019-04-06T07:19:31.212Z,978.31
2019-04-06T07:20:31.210Z,978.35
2019-04-06T07:21:31.309Z,978.36
2019-04-06T07:22:31.191Z,978.35
2019-04-06T07:23:31.170Z,978.31
2019-04-06T07:24:31.154Z,978.27
2019-04-06T07:25:31.170Z,978.22
2019-04-06T07:26:31.294Z,978.23
2019-04-06T07:27:31.387Z,978.19
2019-04-06T07:28:37.540Z,978.18
2019-04-06T07:29:32.263Z,978.25
2019-04-06T07:30:31.116Z,978.18
2019-04-06T07:31:31.082Z,978.26
2019-04-06T07:32:31.080Z,978.25
2019-04-06T07:33:31.069Z,978.24
2019-04-06T07:34:31.077Z,978.30
2019-04-06T07:35:31.060Z,978.26
2019-04-06T07:36:31.024Z,978.33
2019-04-06T07:37:31.115Z,978.32
2019-04-06T07:38:31.007Z,978.25
2019-04-06T07:39:30.992Z,978.27
2019-04-06T07:40:30.982Z,978.28
2019-04-06T07:41:30.980Z,978.29
2019-04-06T07:42:31.105Z,978.25
2019-04-06T07:43:30.977Z,978.26
2019-04-06T07:44:30.944Z,978.26
2019-04-06T07:45:30.944Z,978.25
2019-04-06T07:46:31.050Z,978.28
2019-04-06T07:47:30.952Z,978.27
2019-04-06T07:48:31.006Z,978.26
2019-04-06T07:49:30.888Z,978.23
2019-04-06T07:50:31.013Z,978.18
2019-04-06T07:51:30.876Z,978.18
2019-04-06T07:52:30.981Z,978.21
2019-04-06T07:53:30.883Z,978.17
2019-04-06T07:54:30.831Z,978.21
2019-04-06T07:55:30.823Z,978.16
2019-04-06T07:56:30.810Z,978.11
2019-04-06T07:57:30.814Z,978.24
2019-04-06T07:58:30.820Z,978.20
2019-04-06T07:59:30.796Z,978.22
2019-04-06T08:00:30.795Z,978.24
2019-04-06T08:01:30.763Z,978.25
2019-04-06T08:02:30.759Z,978.29
2019-04-06T08:03:30.737Z,978.29
2019-04-06T08:04:30.725Z,978.30
2019-04-06T08:05:30.741Z,978.32
2019-04-06T08:06:30.730Z,978.32
2019-04-06T08:07:30.708Z,978.30
2019-04-06T08:08:30.681Z,978.34
2019-04-06T08:09:30.673Z,978.32
2019-04-06T08:10:30.672Z,978.37
2019-04-06T08:11:30.700Z,978.39
2019-04-06T08:12:31.091Z,978.32
2019-04-06T08:13:30.653Z,978.29
2019-04-06T08:14:30.683Z,978.29
2019-04-06T08:15:30.936Z,978.25
2019-04-06T08:16:30.621Z,978.21
2019-04-06T08:17:30.692Z,978.19
2019-04-06T08:18:30.624Z,978.18
2019-04-06T08:19:30.760Z,978.22
2019-04-06T08:20:30.580Z,978.21
2019-04-06T08:21:30.568Z,978.20
2019-04-06T08:22:30.580Z,978.11
2019-04-06T08:23:30.720Z,978.18
2019-04-06T08:24:30.511Z,978.12
2019-04-06T08:25:30.498Z,978.08
2019-04-06T08:26:30.689Z,978.14
2019-04-06T08:27:30.487Z,978.07
2019-04-06T08:28:30.502Z,978.03
2019-04-06T08:29:30.478Z,978.09
2019-04-06T08:30:30.448Z,978.02
2019-04-06T08:31:30.682Z,978.03
2019-04-06T08:32:30.424Z,978.07
2019-04-06T08:33:30.430Z,977.99
2019-04-06T08:34:30.400Z,978.03
2019-04-06T08:35:30.394Z,978.03
2019-04-06T08:36:30.400Z,977.99
2019-04-06T08:37:30.458Z,978.05
2019-04-06T08:38:30.432Z,978.00
2019-04-06T08:39:30.350Z,978.03
2019-04-06T08:40:31.052Z,977.99
2019-04-06T08:41:30.342Z,978.04
2019-04-06T08:42:30.343Z,978.05
2019-04-06T08:43:30.318Z,978.04
2019-04-06T08:44:30.294Z,978.02
2019-04-06T08:45:30.295Z,978.04
2019-04-06T08:46:30.348Z,977.99
2019-04-06T08:47:30.395Z,978.01
2019-04-06T08:48:30.454Z,978.00
2019-04-06T08:49:30.420Z,977.99
2019-04-06T08:50:30.314Z,978.01
2019-04-06T08:51:30.240Z,978.00
2019-04-06T08:52:30.225Z,978.00
2019-04-06T08:53:30.220Z,978.02
2019-04-06T08:54:30.310Z,978.09
2019-04-06T08:55:30.216Z,978.03
2019-04-06T08:56:30.187Z,978.02
2019-04-06T08:57:30.433Z,977.91
2019-04-06T08:58:30.171Z,977.94
2019-04-06T08:59:30.391Z,977.95
2019-04-06T09:00:30.185Z,977.86
2019-04-06T09:01:30.110Z,977.84
2019-04-06T09:02:30.176Z,977.82
2019-04-06T09:03:30.179Z,977.83
2019-04-06T09:04:30.126Z,977.85
2019-04-06T09:05:30.129Z,977.76
2019-04-06T09:06:30.068Z,977.73
2019-04-06T09:07:30.283Z,977.74
2019-04-06T09:08:30.083Z,977.76
2019-04-06T09:09:30.029Z,977.74
2019-04-06T09:10:30.051Z,977.77
2019-04-06T09:11:30.025Z,977.71
2019-04-06T09:12:30.147Z,977.68
2019-04-06T09:13:30.004Z,977.75
2019-04-06T09:14:29.987Z,977.84
2019-04-06T09:15:30.032Z,977.82
2019-04-06T09:16:30.005Z,977.79
2019-04-06T09:17:30.050Z,977.79
2019-04-06T09:18:29.957Z,977.83
2019-04-06T09:19:29.921Z,977.75
2019-04-06T09:20:29.907Z,977.77
2019-04-06T09:21:29.946Z,977.78
2019-04-06T09:22:29.902Z,977.71
2019-04-06T09:23:30.218Z,977.67
2019-04-06T09:24:30.100Z,977.68
2019-04-06T09:25:29.858Z,977.74
2019-04-06T09:26:29.986Z,977.65
2019-04-06T09:27:29.825Z,977.67
2019-04-06T09:28:29.825Z,977.73
2019-04-06T09:29:29.806Z,977.67
2019-04-06T09:30:29.809Z,977.66
2019-04-06T09:31:29.799Z,977.68
2019-04-06T09:32:29.770Z,977.71
2019-04-06T09:33:29.772Z,977.67
2019-04-06T09:34:31.183Z,977.70
2019-04-06T09:35:29.737Z,977.72
2019-04-06T09:36:29.726Z,977.69
2019-04-06T09:37:30.048Z,977.71
2019-04-06T09:38:29.715Z,977.70
2019-04-06T09:39:29.693Z,977.68
2019-04-06T09:40:29.682Z,977.65
2019-04-06T09:41:29.669Z,977.64
2019-04-06T09:42:29.761Z,977.58
2019-04-06T09:43:29.804Z,977.50
2019-04-06T09:44:29.640Z,977.59
2019-04-06T09:45:29.907Z,977.54
2019-04-06T09:46:29.633Z,977.51
2019-04-06T09:47:29.620Z,977.59
2019-04-06T09:48:29.619Z,977.57
2019-04-06T09:49:29.586Z,977.51
2019-04-06T09:50:29.583Z,977.55
2019-04-06T09:51:29.561Z,977.52
2019-04-06T09:52:29.552Z,977.58
2019-04-06T09:53:29.709Z,977.53
2019-04-06T09:54:29.547Z,977.55
2019-04-06T09:55:29.520Z,977.55
2019-04-06T09:56:29.518Z,977.52
2019-04-06T09:57:29.498Z,977.45
2019-04-06T09:58:29.530Z,977.48
2019-04-06T09:59:35.968Z,977.49
2019-04-06T10:00:30.483Z,977.42
2019-04-06T10:01:37.940Z,977.36
2019-04-06T10:02:30.461Z,977.45
2019-04-06T10:03:29.692Z,977.51
2019-04-06T10:04:29.456Z,977.49
2019-04-06T10:05:29.764Z,977.64
2019-04-06T10:06:32.158Z,977.56
2019-04-06T10:07:29.473Z,977.64
2019-04-06T10:08:29.385Z,977.67
2019-04-06T10:09:29.399Z,977.62
2019-04-06T10:10:29.483Z,977.71
2019-04-06T10:11:29.359Z,977.72
2019-04-06T10:12:29.341Z,977.68
2019-04-06T10:13:29.333Z,977.70
2019-04-06T10:14:29.548Z,977.68
2019-04-06T10:15:29.488Z,977.66
2019-04-06T10:16:29.343Z,977.67
2019-04-06T10:17:29.302Z,977.75
2019-04-06T10:18:29.274Z,977.70
2019-04-06T10:19:29.282Z,977.69
2019-04-06T10:20:29.377Z,977.70
2019-04-06T10:21:29.278Z,977.55
2019-04-06T10:22:29.503Z,977.61
2019-04-06T10:23:29.231Z,977.66
2019-04-06T10:24:29.585Z,977.57
2019-04-06T10:25:29.198Z,977.59
2019-04-06T10:26:29.199Z,977.62
2019-04-06T10:27:29.505Z,977.61
2019-04-06T10:28:29.171Z,977.60
2019-04-06T10:29:29.173Z,977.59
2019-04-06T10:30:29.144Z,977.57
2019-04-06T10:31:29.439Z,977.53
2019-04-06T10:32:29.170Z,977.57
2019-04-06T10:33:29.169Z,977.57
2019-04-06T10:34:29.182Z,977.54
2019-04-06T10:35:29.120Z,977.51
2019-04-06T10:36:31.399Z,977.52
2019-04-06T10:37:29.300Z,977.44
2019-04-06T10:38:29.083Z,977.62
2019-04-06T10:39:29.094Z,977.54
2019-04-06T10:40:29.043Z,977.57
2019-04-06T10:41:29.031Z,977.61
2019-04-06T10:42:29.608Z,977.57
2019-04-06T10:43:29.313Z,977.54
2019-04-06T10:44:29.140Z,977.57
2019-04-06T10:45:29.010Z,977.60
2019-04-06T10:46:28.985Z,977.56
2019-04-06T10:47:28.971Z,977.56
2019-04-06T10:48:29.200Z,977.57
2019-04-06T10:49:28.958Z,977.52
2019-04-06T10:50:28.936Z,977.48
2019-04-06T10:51:28.946Z,977.39
2019-04-06T10:52:28.965Z,977.40
2019-04-06T10:53:28.901Z,977.43
2019-04-06T10:54:28.913Z,977.38
2019-04-06T10:55:28.878Z,977.40
2019-04-06T10:56:28.871Z,977.32
2019-04-06T10:57:29.038Z,977.39
2019-04-06T10:58:28.919Z,977.38
2019-04-06T10:59:28.836Z,977.24
2019-04-06T11:00:28.974Z,977.30
2019-04-06T11:01:29.012Z,977.36
2019-04-06T11:02:29.095Z,977.26
2019-04-06T11:03:28.805Z,977.30
2019-04-06T11:04:28.788Z,977.26
2019-04-06T11:05:28.791Z,977.32
2019-04-06T11:06:28.763Z,977.32
2019-04-06T11:07:29.078Z,977.30
2019-04-06T11:08:28.984Z,977.36
2019-04-06T11:09:28.731Z,977.31
2019-04-06T11:10:28.750Z,977.24
2019-04-06T11:11:28.744Z,977.24
2019-04-06T11:12:28.704Z,977.18
2019-04-06T11:13:28.712Z,977.19
2019-04-06T11:14:28.955Z,977.22
2019-04-06T11:15:28.690Z,977.25
2019-04-06T11:16:28.717Z,977.25
2019-04-06T11:17:28.656Z,977.16
2019-04-06T11:18:28.639Z,977.22
2019-04-06T11:19:28.946Z,977.21
2019-04-06T11:20:28.638Z,977.17
2019-04-06T11:21:28.625Z,977.18
2019-04-06T11:22:28.853Z,977.16
2019-04-06T11:23:28.603Z,977.09
2019-04-06T11:24:28.588Z,977.08
2019-04-06T11:25:28.816Z,977.12
2019-04-06T11:26:28.706Z,977.05
2019-04-06T11:27:28.779Z,977.03
2019-04-06T11:28:28.532Z,976.99
2019-04-06T11:29:28.532Z,976.88
2019-04-06T11:30:28.539Z,976.94
2019-04-06T11:31:28.505Z,976.88
2019-04-06T11:32:28.546Z,976.96
2019-04-06T11:33:28.497Z,976.95
2019-04-06T11:34:28.516Z,976.91
2019-04-06T11:35:28.477Z,976.84
2019-04-06T11:36:28.471Z,976.82
2019-04-06T11:37:28.871Z,976.83
2019-04-06T11:38:28.427Z,976.82
2019-04-06T11:39:28.491Z,976.75
2019-04-06T11:40:28.444Z,976.66
2019-04-06T11:41:28.400Z,976.65
2019-04-06T11:42:28.396Z,976.70
2019-04-06T11:43:28.593Z,976.76
2019-04-06T11:44:28.375Z,976.70
2019-04-06T11:45:28.422Z,976.71
2019-04-06T11:46:28.346Z,976.68
2019-04-06T11:47:28.347Z,976.59
2019-04-06T11:48:28.437Z,976.70
2019-04-06T11:49:28.311Z,976.61
2019-04-06T11:50:28.461Z,976.71
2019-04-06T11:51:28.295Z,976.65
2019-04-06T11:52:28.307Z,976.64
2019-04-06T11:53:28.274Z,976.56
2019-04-06T11:54:28.339Z,976.57
2019-04-06T11:55:28.318Z,976.59
2019-04-06T11:56:28.239Z,976.56
2019-04-06T11:57:28.531Z,976.48
2019-04-06T11:58:28.216Z,976.45
2019-04-06T11:59:28.316Z,976.47
2019-04-06T12:00:28.236Z,976.52
2019-04-06T12:01:28.184Z,976.55
2019-04-06T12:02:28.174Z,976.52
2019-04-06T12:03:28.162Z,976.55
2019-04-06T12:04:28.198Z,976.59
2019-04-06T12:05:28.272Z,976.56
2019-04-06T12:06:28.153Z,976.57
2019-04-06T12:07:28.258Z,976.59
2019-04-06T12:08:28.114Z,976.62
2019-04-06T12:09:28.228Z,976.60
2019-04-06T12:10:28.094Z,976.59
2019-04-06T12:11:28.187Z,976.61
2019-04-06T12:12:28.333Z,976.51
2019-04-06T12:13:28.060Z,976.50
2019-04-06T12:14:28.060Z,976.54
2019-04-06T12:15:28.099Z,976.54
2019-04-06T12:16:28.063Z,976.51
2019-04-06T12:17:28.016Z,976.50
2019-04-06T12:18:28.302Z,976.50
2019-04-06T12:19:27.993Z,976.50
2019-04-06T12:20:28.207Z,976.55
2019-04-06T12:21:28.281Z,976.49
2019-04-06T12:22:28.369Z,976.53
2019-04-06T12:23:27.981Z,976.51
2019-04-06T12:24:27.963Z,976.53
2019-04-06T12:25:27.967Z,976.55
2019-04-06T12:26:27.941Z,976.53
2019-04-06T12:27:28.002Z,976.50
2019-04-06T12:28:27.901Z,976.51